This is the latest recevied weather packets stored in our database for station/object KQ4OSL. If no packets are shown the sender has not sent any weather packets the latest 10 day(s).
| Time | Temp. | Humidity | Pressure | Rain* | Wind** | Luminosity | Snow |
|---|---|---|---|---|---|---|---|
| 1787509426 | 31.11° C | 69% | 1018 hPa | 0 mm | - | 679 W/m² | - |
| 1787509122 | 31.11° C | 70% | 1018 hPa | 0 mm | - | 751 W/m² | - |
| 1787508818 | 30.56° C | 74% | 1018.3 hPa | 0 mm | - | 779 W/m² | - |
| 1787508517 | 30° C | 74% | 1018.3 hPa | 0 mm | - | 169 W/m² | - |
| 1787508215 | 30° C | 73% | 1018.5 hPa | 0 mm | - | 221 W/m² | - |
| 1787507910 | 30.56° C | 71% | 1018.5 hPa | 0 mm | - | 202 W/m² | - |
| 1787507606 | 30.56° C | 73% | 1018.6 hPa | 0 mm | - | 780 W/m² | - |
| 1787507301 | 31.11° C | 69% | 1018.7 hPa | 0 mm | - | 219 W/m² | - |
| 1787506998 | 31.11° C | 70% | 1018.7 hPa | 0 mm | - | 790 W/m² | - |
| 1787506693 | 30.56° C | 68% | 1018.6 hPa | 0 mm | - | 750 W/m² | - |
| 1787506389 | 30.56° C | 71% | 1018.9 hPa | 0 mm | - | 773 W/m² | - |
| 1787506084 | 31.67° C | 69% | 1018.8 hPa | 0 mm | - | 307 W/m² | - |
| 1787505780 | 30.56° C | 69% | 1018.7 hPa | 0 mm | - | 801 W/m² | - |
| 1787505475 | 30.56° C | 73% | 1018.8 hPa | 0 mm | - | 790 W/m² | - |
| 1787505171 | 31.11° C | 71% | 1018.9 hPa | 0 mm | - | 227 W/m² | - |
| 1787504869 | 29.44° C | 74% | 1019 hPa | 0 mm | - | 784 W/m² | - |
| 1787504566 | 30° C | 77% | 1018.8 hPa | 0 mm | - | 140 W/m² | - |
| 1787504261 | 30° C | 71% | 1018.9 hPa | 0 mm | - | 143 W/m² | - |
| 1787503957 | 30° C | 75% | 1019 hPa | 0 mm | - | 817 W/m² | - |
| 1787482702 | 20° C | 99% | 1017.8 hPa | 0 mm | - | 0 W/m² | - |
| 1787482399 | 20° C | 99% | 1017.8 hPa | 4.32 mm | - | 0 W/m² | - |
| 1787482095 | 20° C | 99% | 1017.5 hPa | 4.83 mm | - | 0 W/m² | - |
| 1787481794 | 20° C | 99% | 1017.4 hPa | 0 mm | - | 0 W/m² | - |
| 1787481489 | 20° C | 99% | 1017.5 hPa | 0 mm | - | 0 W/m² | - |
| 1787481187 | 20° C | 99% | 1017.3 hPa | 0 mm | - | 0 W/m² | - |
* Rain latest hour (hover to see other rain measurements)
** Current wind speed in m/s (hover to see current wind gust speed)